Time;durP1;ratioP1;P1;durP2;ratioP2;P2;SDS_P1;SDS_P2;PMS_P1;PMS_P2;Temp;Humidity;BMP_temperature;BMP_pressure;BME280_temperature;BME280_humidity;BME280_pressure;Samples;Min_cycle;Max_cycle;Signal;HPM_P1;HPM_P2
2021/06/10 00:02:27;;;;;;;7.03;4.05;;;;;;;19.03;46.61;102064.91;5027504;27;123879;-72
2021/06/10 00:04:54;;;;;;;7.30;4.15;;;;;;;18.98;46.39;102064.31;5027013;28;113692;-72
2021/06/10 00:07:21;;;;;;;12.48;4.28;;;;;;;18.94;46.51;102065.47;5028029;28;113387;-72
2021/06/10 00:09:48;;;;;;;6.25;4.57;;;;;;;18.86;46.72;102058.75;5034388;27;124732;-72
2021/06/10 00:12:18;;;;;;;7.25;4.70;;;;;;;18.82;47.04;102059.03;5026975;28;123956;-72
2021/06/10 00:14:46;;;;;;;5.10;4.35;;;;;;;18.78;47.01;102055.63;5028806;28;115045;-72
2021/06/10 00:17:14;;;;;;;5.40;4.30;;;;;;;18.75;47.17;102058.50;5027324;28;114506;-72
2021/06/10 00:19:41;;;;;;;9.95;4.18;;;;;;;18.70;47.06;102060.59;5030356;27;123594;-72
2021/06/10 00:22:08;;;;;;;6.93;4.30;;;;;;;18.68;46.92;102057.13;5031314;27;123271;-72
2021/06/10 00:24:35;;;;;;;6.57;4.47;;;;;;;18.66;46.91;102064.41;5032814;28;114031;-72
2021/06/10 00:27:03;;;;;;;8.20;4.68;;;;;;;18.62;47.08;102062.88;5032794;28;114152;-72
2021/06/10 00:29:30;;;;;;;5.70;4.68;;;;;;;18.60;46.93;102070.16;5040864;27;124600;-72
2021/06/10 00:31:57;;;;;;;7.85;4.70;;;;;;;18.58;47.17;102066.69;5033098;28;124526;-72
2021/06/10 00:34:24;;;;;;;5.97;4.47;;;;;;;18.56;47.62;102063.25;5043289;27;114898;-72
2021/06/10 00:36:51;;;;;;;5.20;4.65;;;;;;;18.54;47.57;102065.16;5033119;28;114282;-73
2021/06/10 00:39:19;;;;;;;7.53;4.60;;;;;;;18.51;47.69;102057.28;5027666;27;126050;-72
2021/06/10 00:41:46;;;;;;;7.03;4.75;;;;;;;18.49;47.56;102063.59;5030820;28;123127;-72
2021/06/10 00:44:13;;;;;;;7.15;4.25;;;;;;;18.46;47.75;102058.41;5032736;28;114715;-72
2021/06/10 00:46:40;;;;;;;9.00;4.85;;;;;;;18.43;47.66;102058.59;5031016;28;112482;-72
2021/06/10 00:49:07;;;;;;;5.82;4.38;;;;;;;18.41;47.71;102060.50;5030812;28;124327;-72
2021/06/10 00:51:37;;;;;;;4.80;4.32;;;;;;;18.39;47.95;102059.72;5032080;28;124574;-72
2021/06/10 00:54:05;;;;;;;5.32;4.82;;;;;;;18.37;48.00;102058.97;5030977;28;114265;-72
2021/06/10 00:56:32;;;;;;;5.47;4.88;;;;;;;18.34;48.16;102059.13;5032805;28;115056;-72
2021/06/10 00:59:00;;;;;;;6.57;4.75;;;;;;;18.32;48.14;102050.31;5036599;27;124835;-72
2021/06/10 01:01:28;;;;;;;6.00;4.97;;;;;;;18.31;48.10;102056.66;5032065;28;123530;-72
2021/06/10 01:03:55;;;;;;;5.63;4.80;;;;;;;18.31;48.20;102059.31;5047039;27;115073;-72
2021/06/10 01:06:41;;;;;;;8.93;5.85;;;;;;;18.26;48.34;102056.03;5032608;28;115294;-72
2021/06/10 01:09:13;;;;;;;7.30;5.50;;;;;;;18.23;47.96;102053.53;5029863;28;124198;-72
2021/06/10 01:12:02;;;;;;;5.95;5.35;;;;;;;18.19;48.11;102060.03;5026007;28;122808;-73
2021/06/10 01:14:36;;;;;;;9.13;5.25;;;;;;;18.15;47.97;102053.13;5043693;27;114152;-72
2021/06/10 01:17:05;;;;;;;6.65;4.90;;;;;;;18.13;48.12;102055.03;5028879;28;113828;-72
2021/06/10 01:19:42;;;;;;;7.07;5.68;;;;;;;18.09;48.66;102060.53;5046834;27;124153;-72
2021/06/10 01:22:19;;;;;;;6.00;5.38;;;;;;;18.05;48.80;102064.34;5060422;22;124789;-73
2021/06/10 01:24:57;;;;;;;7.07;4.93;;;;;;;18.03;48.91;102055.53;5046802;27;113993;-73
2021/06/10 01:27:30;;;;;;;7.15;5.13;;;;;;;18.02;49.16;102058.31;5050875;27;112946;-73
2021/06/10 01:30:14;;;;;;;6.68;5.40;;;;;;;17.99;48.80;102048.63;5046580;27;125272;-73
2021/06/10 01:33:02;;;;;;;7.60;5.45;;;;;;;17.96;48.92;102053.31;5025493;28;123642;-73
2021/06/10 01:35:36;;;;;;;6.57;5.35;;;;;;;17.95;48.91;102052.44;5040422;27;113350;-73
2021/06/10 01:38:05;;;;;;;5.82;5.07;;;;;;;17.95;49.21;102059.59;5029306;28;114691;-73
2021/06/10 01:40:33;;;;;;;8.00;5.35;;;;;;;17.91;49.14;102050.88;5015622;28;123795;-73
2021/06/10 01:43:01;;;;;;;7.78;5.00;;;;;;;17.90;48.92;102052.69;5031581;28;122977;-73
2021/06/10 01:45:29;;;;;;;7.38;5.28;;;;;;;17.90;49.31;102054.50;5032118;28;114972;-73
2021/06/10 01:47:56;;;;;;;10.00;5.95;;;;;;;17.88;49.52;102056.41;5031776;28;113961;-73
2021/06/10 01:50:25;;;;;;;6.53;5.38;;;;;;;17.86;49.51;102047.59;5000856;28;123100;-73
2021/06/10 01:52:54;;;;;;;6.32;5.72;;;;;;;17.85;49.50;102051.22;5027901;28;124714;-73
2021/06/10 01:55:24;;;;;;;7.32;5.60;;;;;;;17.83;49.53;102053.09;5015034;28;115128;-73
2021/06/10 01:57:52;;;;;;;6.82;5.90;;;;;;;17.82;49.58;102051.34;5015116;28;114126;-73
2021/06/10 02:00:22;;;;;;;6.55;5.68;;;;;;;17.81;49.89;102046.97;5026495;28;124531;-73
2021/06/10 02:02:50;;;;;;;8.02;5.95;;;;;;;17.81;49.83;102049.63;5029365;28;122837;-73
2021/06/10 02:05:20;;;;;;;9.35;5.22;;;;;;;17.81;49.90;102046.97;5016327;28;113534;-73
2021/06/10 02:07:49;;;;;;;7.72;6.35;;;;;;;17.80;50.20;102047.91;5016268;28;112743;-73
2021/06/10 02:10:23;;;;;;;9.32;6.10;;;;;;;17.78;50.02;102044.44;5030391;28;123996;-73
2021/06/10 02:12:51;;;;;;;7.70;5.85;;;;;;;17.77;49.99;102053.44;5027453;28;124538;-73
2021/06/10 02:15:19;;;;;;;6.40;5.55;;;;;;;17.75;50.13;102050.00;5025339;28;114598;-73
2021/06/10 02:17:48;;;;;;;8.27;5.78;;;;;;;17.73;50.40;102051.91;5029345;28;113081;-73
2021/06/10 02:20:19;;;;;;;8.30;6.30;;;;;;;17.68;50.48;102044.94;5014514;28;123232;-73
2021/06/10 02:22:46;;;;;;;9.10;6.30;;;;;;;17.67;50.46;102043.25;5017321;27;123095;-73
2021/06/10 02:25:14;;;;;;;11.23;6.35;;;;;;;17.63;50.66;102041.69;5028987;28;113962;-73
2021/06/10 02:27:41;;;;;;;7.70;5.95;;;;;;;17.62;50.55;102034.59;5025505;28;113137;-73
2021/06/10 02:30:10;;;;;;;8.32;6.38;;;;;;;17.60;50.57;102036.50;5026170;28;124772;-73
2021/06/10 02:32:37;;;;;;;9.07;6.10;;;;;;;17.59;50.50;102037.44;5019796;28;124618;-73
2021/06/10 02:35:08;;;;;;;9.73;6.38;;;;;;;17.58;50.55;102038.41;5028485;28;115010;-73
2021/06/10 02:37:38;;;;;;;8.18;6.00;;;;;;;17.57;50.50;102039.31;5025481;28;114701;-73
2021/06/10 02:40:10;;;;;;;9.63;5.80;;;;;;;17.54;50.34;102030.59;5026941;28;124117;-73
2021/06/10 02:42:38;;;;;;;8.50;5.60;;;;;;;17.52;50.63;102039.59;5019643;28;123864;-73
2021/06/10 02:45:07;;;;;;;8.80;6.20;;;;;;;17.50;50.64;102035.28;5016277;27;114220;-73
2021/06/10 02:47:36;;;;;;;8.38;5.57;;;;;;;17.47;50.79;102030.94;5028421;28;114694;-73
2021/06/10 02:50:07;;;;;;;6.63;5.95;;;;;;;17.46;50.96;102025.66;5028394;28;124022;-73
2021/06/10 02:52:42;;;;;;;10.40;5.70;;;;;;;17.43;51.05;102012.47;5014279;28;124013;-73
2021/06/10 02:55:11;;;;;;;9.57;6.15;;;;;;;17.41;51.06;102014.34;5028307;28;113737;-73
2021/06/10 02:57:40;;;;;;;7.30;5.68;;;;;;;17.40;51.19;102017.97;5014873;28;113163;-73
2021/06/10 03:00:08;;;;;;;9.38;6.13;;;;;;;17.39;51.26;102021.63;5027691;28;124151;-73
2021/06/10 03:02:36;;;;;;;9.82;6.50;;;;;;;17.39;51.35;102016.25;5015728;28;123001;-73
2021/06/10 03:05:05;;;;;;;7.22;6.20;;;;;;;17.39;51.40;102016.25;5015463;28;112991;-73
2021/06/10 03:07:36;;;;;;;10.90;6.50;;;;;;;17.37;51.72;102011.00;5027308;28;114073;-73
2021/06/10 03:10:06;;;;;;;9.05;6.97;;;;;;;17.38;51.66;102003.81;5028629;28;123719;-73
2021/06/10 03:12:35;;;;;;;10.50;6.72;;;;;;;17.39;51.78;102005.56;5027048;28;123395;-73
2021/06/10 03:15:03;;;;;;;7.63;6.60;;;;;;;17.39;51.93;102000.19;5026680;28;113251;-73
2021/06/10 03:17:31;;;;;;;9.15;6.88;;;;;;;17.39;51.73;102002.88;5030160;28;113858;-73
2021/06/10 03:19:58;;;;;;;11.55;6.97;;;;;;;17.39;51.67;102000.19;5024059;28;123991;-73
2021/06/10 03:22:25;;;;;;;7.93;6.53;;;;;;;17.39;51.56;102005.56;5013512;28;123113;-73
2021/06/10 03:24:53;;;;;;;9.48;7.10;;;;;;;17.37;51.81;101994.91;5023369;28;113525;-73
2021/06/10 03:27:20;;;;;;;8.65;6.57;;;;;;;17.38;51.79;101998.44;5027719;28;113850;-73
2021/06/10 03:29:47;;;;;;;8.43;6.50;;;;;;;17.38;51.70;101998.44;5027233;28;124294;-73
2021/06/10 03:32:15;;;;;;;9.52;6.80;;;;;;;17.38;51.88;101998.44;5030941;28;123959;-73
2021/06/10 03:34:44;;;;;;;9.35;6.72;;;;;;;17.38;52.07;102003.81;5024970;28;115588;-73
2021/06/10 03:37:11;;;;;;;9.93;6.95;;;;;;;17.36;52.43;102003.03;5028815;28;115341;-73
2021/06/10 03:39:39;;;;;;;9.25;6.80;;;;;;;17.35;52.35;102002.16;5026415;28;124219;-73
2021/06/10 03:42:07;;;;;;;15.13;7.15;;;;;;;17.35;52.42;101993.25;5023637;28;124417;-73
2021/06/10 03:44:34;;;;;;;9.73;6.72;;;;;;;17.34;52.36;101997.75;5030653;28;114886;-73
2021/06/10 03:47:01;;;;;;;11.05;7.45;;;;;;;17.34;52.34;101991.53;5030668;28;115576;-73
2021/06/10 03:49:29;;;;;;;11.98;7.00;;;;;;;17.32;52.32;102000.50;5014312;28;123331;-73
2021/06/10 03:51:56;;;;;;;12.65;6.80;;;;;;;17.33;52.37;101996.03;5015379;28;124028;-73
2021/06/10 03:54:23;;;;;;;12.43;7.65;;;;;;;17.31;52.50;101988.09;5005786;28;113442;-73
2021/06/10 03:56:50;;;;;;;10.95;6.60;;;;;;;17.32;52.31;101984.44;5030719;27;113574;-73
2021/06/10 03:59:17;;;;;;;14.60;7.10;;;;;;;17.35;52.42;101987.91;5013108;28;123600;-73
2021/06/10 04:01:45;;;;;;;12.15;7.15;;;;;;;17.37;52.36;101980.66;5026480;28;124184;-73
2021/06/10 04:04:12;;;;;;;19.15;7.07;;;;;;;17.38;52.18;101999.31;5028722;28;113589;-73
2021/06/10 04:06:39;;;;;;;13.30;7.80;;;;;;;17.39;52.58;101997.50;5027434;28;114728;-73
2021/06/10 04:09:08;;;;;;;14.88;8.05;;;;;;;17.40;52.68;102007.25;5023444;28;124412;-73
2021/06/10 04:11:37;;;;;;;17.25;8.60;;;;;;;17.38;52.87;102009.16;5026599;28;123677;-73
2021/06/10 04:14:05;;;;;;;15.07;8.55;;;;;;;17.35;52.89;102009.31;5029687;28;115153;-73
2021/06/10 04:16:33;;;;;;;13.23;8.73;;;;;;;17.34;52.79;102012.97;5016010;28;113766;-73
2021/06/10 04:19:00;;;;;;;13.55;8.15;;;;;;;17.35;52.81;102004.84;5025942;28;123597;-73
2021/06/10 04:21:28;;;;;;;11.10;7.95;;;;;;;17.36;52.69;102001.22;4997717;28;123280;-73
2021/06/10 04:23:55;;;;;;;11.55;9.35;;;;;;;17.38;52.91;101999.31;5014201;28;114622;-73
2021/06/10 04:26:22;;;;;;;15.43;9.32;;;;;;;17.41;53.27;101999.16;5023496;28;114790;-73
2021/06/10 04:28:49;;;;;;;15.90;9.30;;;;;;;17.44;53.58;101987.38;5012997;28;123540;-73
2021/06/10 04:31:20;;;;;;;15.93;9.55;;;;;;;17.47;53.57;101988.09;5012714;28;124201;-73
2021/06/10 04:33:48;;;;;;;14.82;9.75;;;;;;;17.53;53.80;101986.88;5028606;28;114052;-73
2021/06/10 04:36:15;;;;;;;13.50;10.13;;;;;;;17.59;53.61;101986.53;5027510;28;114558;-73
2021/06/10 04:38:43;;;;;;;14.25;10.80;;;;;;;17.66;53.63;101992.41;5011577;28;123346;-73
2021/06/10 04:41:10;;;;;;;13.10;11.40;;;;;;;17.71;53.60;101991.19;5019718;28;123212;-73
2021/06/10 04:43:37;;;;;;;13.95;11.65;;;;;;;17.77;53.72;101989.13;5014112;28;115439;-73
2021/06/10 04:46:04;;;;;;;12.88;11.32;;;;;;;17.84;53.65;101990.53;5013181;28;114630;-73
2021/06/10 04:48:32;;;;;;;13.98;11.25;;;;;;;17.89;53.80;101999.16;5025780;28;124663;-73
2021/06/10 04:51:00;;;;;;;14.57;11.40;;;;;;;17.98;53.85;102009.38;5030482;28;124757;-73
2021/06/10 04:53:27;;;;;;;17.00;11.65;;;;;;;18.06;53.82;102011.59;5032764;28;114787;-73
2021/06/10 04:55:54;;;;;;;14.32;11.48;;;;;;;18.14;54.22;102008.47;5032614;28;113851;-73
2021/06/10 04:58:21;;;;;;;17.88;11.82;;;;;;;18.23;53.99;102002.56;5029275;28;124037;-73
2021/06/10 05:00:49;;;;;;;16.08;12.13;;;;;;;18.33;54.02;102006.44;5030535;28;124314;-72
2021/06/10 05:03:21;;;;;;;15.85;12.38;;;;;;;18.41;53.97;102006.84;5016903;28;113500;-73
2021/06/10 05:05:49;;;;;;;20.55;12.65;;;;;;;18.49;53.80;102004.56;5024407;27;115001;-73
2021/06/10 05:08:16;;;;;;;15.27;12.88;;;;;;;18.58;53.88;102002.31;5011225;28;123974;-72
2021/06/10 05:10:43;;;;;;;17.67;12.20;;;;;;;18.68;53.74;101998.09;5027317;28;123747;-72
2021/06/10 05:13:10;;;;;;;14.05;12.57;;;;;;;18.78;53.80;101988.53;5024317;28;115031;-72
2021/06/10 05:15:37;;;;;;;16.77;12.85;;;;;;;18.89;53.75;101989.72;5017597;28;114685;-73
2021/06/10 05:18:05;;;;;;;19.95;12.95;;;;;;;18.99;53.72;101990.88;5041353;27;123166;-73
2021/06/10 05:20:32;;;;;;;15.30;12.57;;;;;;;19.07;53.91;101993.94;5042145;27;124073;-73
2021/06/10 05:22:59;;;;;;;15.38;13.20;;;;;;;19.15;53.85;101991.63;5027699;28;114087;-72
2021/06/10 05:25:26;;;;;;;18.40;13.63;;;;;;;19.24;53.79;102000.94;5029873;28;112559;-72
2021/06/10 05:27:54;;;;;;;18.10;14.23;;;;;;;19.34;53.67;102003.91;5029937;28;123427;-73
2021/06/10 05:30:22;;;;;;;17.90;14.35;;;;;;;19.43;53.63;102006.00;5017795;28;123214;-73
2021/06/10 05:32:49;;;;;;;15.85;14.25;;;;;;;19.51;53.36;102006.38;5030002;28;114927;-72
2021/06/10 05:35:16;;;;;;;17.27;13.98;;;;;;;19.61;53.40;102004.81;5029246;27;114088;-73
2021/06/10 05:37:43;;;;;;;17.45;15.07;;;;;;;19.71;53.39;102009.59;5026110;28;125193;-72
2021/06/10 05:40:11;;;;;;;18.63;14.48;;;;;;;19.80;53.19;102003.66;5028927;28;123639;-72
2021/06/10 05:42:38;;;;;;;18.77;14.65;;;;;;;19.91;53.30;102006.50;5030657;28;114190;-73
2021/06/10 05:45:06;;;;;;;18.38;15.32;;;;;;;20.02;53.32;102003.97;5029504;28;113532;-73
2021/06/10 05:47:34;;;;;;;17.55;15.20;;;;;;;20.12;53.33;102008.75;5029584;28;124724;-72
2021/06/10 05:50:03;;;;;;;17.00;14.30;;;;;;;20.22;53.18;102007.13;5028760;28;124247;-73
2021/06/10 05:52:30;;;;;;;16.42;14.68;;;;;;;20.32;53.23;102005.53;5018088;28;113787;-73
2021/06/10 05:54:58;;;;;;;17.90;14.30;;;;;;;20.41;52.96;102010.28;5029545;28;114004;-73
2021/06/10 05:57:26;;;;;;;17.38;14.15;;;;;;;20.53;53.02;102021.19;5025826;28;123802;-72
2021/06/10 05:59:53;;;;;;;17.90;13.88;;;;;;;20.65;52.65;102017.72;5019259;28;124165;-72
2021/06/10 06:02:20;;;;;;;17.17;14.32;;;;;;;20.76;52.43;102023.22;5027707;28;115637;-73
2021/06/10 06:04:47;;;;;;;17.30;13.77;;;;;;;20.88;52.33;102023.31;5025433;28;114855;-73
2021/06/10 06:07:14;;;;;;;17.73;14.13;;;;;;;21.02;52.32;102031.31;5014759;27;124126;-72
2021/06/10 06:09:41;;;;;;;17.98;14.25;;;;;;;21.14;52.37;102033.13;5022046;28;124576;-72
2021/06/10 06:12:11;;;;;;;15.73;13.32;;;;;;;21.30;52.22;102034.72;5027179;28;114418;-73
2021/06/10 06:14:42;;;;;;;16.05;13.50;;;;;;;21.46;51.91;102027.28;5027160;28;114374;-73
2021/06/10 06:17:11;;;;;;;18.00;13.77;;;;;;;21.62;51.81;102024.31;5021300;28;123383;-72
2021/06/10 06:19:39;;;;;;;16.20;13.45;;;;;;;21.81;51.24;102029.22;5010841;28;124674;-72
2021/06/10 06:22:08;;;;;;;15.10;12.90;;;;;;;21.99;51.17;102036.94;5022129;28;113241;-72
2021/06/10 06:24:35;;;;;;;14.63;12.60;;;;;;;22.15;50.58;102029.41;5024392;28;113778;-73
2021/06/10 06:27:03;;;;;;;13.15;11.82;;;;;;;22.32;50.10;102034.44;5001588;28;123943;-73
2021/06/10 06:29:31;;;;;;;14.18;11.88;;;;;;;22.48;50.24;102038.66;5020668;28;123219;-72
2021/06/10 06:31:58;;;;;;;13.05;11.57;;;;;;;22.66;49.93;102031.84;5014077;28;114323;-72
2021/06/10 06:34:26;;;;;;;15.93;11.63;;;;;;;22.84;49.17;102028.69;5024685;28;113608;-73
2021/06/10 06:36:53;;;;;;;14.52;12.18;;;;;;;23.02;49.14;102032.66;5020965;28;123978;-72
2021/06/10 06:39:20;;;;;;;14.90;12.05;;;;;;;23.22;48.67;102038.34;5011812;28;123235;-73
2021/06/10 06:41:47;;;;;;;14.23;12.18;;;;;;;23.42;48.29;102040.31;5015093;28;114092;-73
2021/06/10 06:44:16;;;;;;;13.63;12.23;;;;;;;23.60;48.09;102047.91;5020403;28;114359;-72
2021/06/10 06:46:44;;;;;;;14.35;12.77;;;;;;;23.76;47.69;102029.44;5020188;28;124041;-72
2021/06/10 06:49:11;;;;;;;14.68;12.32;;;;;;;23.96;47.43;102037.78;5027147;28;124276;-73
2021/06/10 06:51:38;;;;;;;13.90;12.43;;;;;;;24.17;47.19;102037.84;5020396;28;114834;-72
2021/06/10 06:54:06;;;;;;;16.67;13.07;;;;;;;24.38;47.21;102037.88;5016911;28;114434;-72
2021/06/10 06:56:33;;;;;;;21.63;13.13;;;;;;;24.57;46.93;102032.63;5021266;28;124301;-72
2021/06/10 06:59:00;;;;;;;15.65;12.50;;;;;;;24.77;46.41;102027.34;5023949;28;124069;-72
2021/06/10 07:01:27;;;;;;;17.30;12.20;;;;;;;24.96;45.91;102023.88;5018917;28;114576;-73
2021/06/10 07:03:54;;;;;;;14.15;11.80;;;;;;;25.12;45.22;102026.97;5022861;27;113439;-72
2021/06/10 07:06:21;;;;;;;14.77;11.73;;;;;;;25.28;45.14;102026.50;5028263;28;123381;-72
2021/06/10 07:08:48;;;;;;;11.88;10.65;;;;;;;25.44;44.81;102026.81;5015872;28;124124;-73
2021/06/10 07:11:36;;;;;;;16.60;11.02;;;;;;;25.62;44.12;102023.47;5020601;28;113153;-73
2021/06/10 07:14:04;;;;;;;13.35;10.93;;;;;;;25.75;43.75;102018.66;5022631;28;114263;-73
2021/06/10 07:16:31;;;;;;;14.20;11.02;;;;;;;25.93;43.75;102026.13;5011396;27;123315;-72
2021/06/10 07:18:58;;;;;;;11.82;10.60;;;;;;;26.06;43.62;102026.72;5015552;28;123787;-73
2021/06/10 07:21:26;;;;;;;12.65;10.98;;;;;;;26.20;42.93;102039.00;5038240;22;113168;-68
2021/06/10 07:23:53;;;;;;;12.63;10.60;;;;;;;26.34;42.92;102045.88;5051242;27;112982;-69
2021/06/10 07:26:20;;;;;;;13.15;10.88;;;;;;;26.47;42.04;102035.56;5047121;27;124387;-69
2021/06/10 07:28:47;;;;;;;25.05;11.27;;;;;;;26.60;42.24;102036.16;5042645;27;123935;-69
2021/06/10 07:31:14;;;;;;;11.20;10.10;;;;;;;26.75;41.77;102033.00;5045590;27;113310;-69
2021/06/10 07:33:42;;;;;;;11.77;10.07;;;;;;;26.90;41.23;102042.41;5044693;27;113836;-70
2021/06/10 07:36:09;;;;;;;12.35;10.50;;;;;;;27.03;40.57;102035.75;5047272;27;124791;-71
2021/06/10 07:38:36;;;;;;;13.35;10.75;;;;;;;27.12;40.16;102045.75;5046267;27;124175;-70
2021/06/10 07:41:03;;;;;;;10.63;9.32;;;;;;;27.21;40.58;102038.56;5046258;27;115170;-70
2021/06/10 07:43:30;;;;;;;12.73;10.52;;;;;;;27.28;39.94;102035.13;5045979;27;114357;-70
2021/06/10 07:45:57;;;;;;;12.18;8.30;;;;;;;27.34;40.28;102039.97;5049013;27;124389;-71
2021/06/10 07:48:29;;;;;;;9.25;6.43;;;;;;;27.42;39.67;102047.38;5039889;27;123915;-71
2021/06/10 07:50:57;;;;;;;10.77;7.38;;;;;;;27.52;39.14;102042.75;5031892;27;115063;-71
2021/06/10 07:53:24;;;;;;;9.73;6.82;;;;;;;27.60;39.13;102049.31;5043858;27;114275;-70
2021/06/10 07:55:54;;;;;;;11.18;6.82;;;;;;;27.63;38.88;102044.41;5042061;27;124502;-71
2021/06/10 07:58:23;;;;;;;10.15;7.65;;;;;;;27.67;38.30;102045.84;5038637;27;124002;-71
2021/06/10 08:00:50;;;;;;;9.57;6.82;;;;;;;27.71;38.10;102041.78;5042218;27;113190;-72
2021/06/10 08:03:18;;;;;;;10.63;7.38;;;;;;;27.74;38.28;102052.34;5049746;27;113895;-71
2021/06/10 08:05:47;;;;;;;8.50;6.68;;;;;;;27.79;38.03;102043.75;5046789;27;124264;-72
2021/06/10 08:08:14;;;;;;;8.38;5.97;;;;;;;27.86;37.80;102038.53;5052005;27;124155;-72
2021/06/10 08:10:41;;;;;;;10.05;6.00;;;;;;;27.94;37.82;102047.69;5050434;27;114689;-72
2021/06/10 08:13:09;;;;;;;6.55;5.85;;;;;;;28.03;37.20;102051.34;5037654;27;113103;-72
2021/06/10 08:15:37;;;;;;;8.65;6.22;;;;;;;28.10;37.08;102046.97;5043843;27;123539;-72
2021/06/10 08:18:05;;;;;;;6.65;5.95;;;;;;;28.17;36.62;102051.81;5035703;27;123882;-71
2021/06/10 08:20:32;;;;;;;7.35;6.15;;;;;;;28.22;36.66;102049.47;5035550;27;114778;-72
2021/06/10 08:23:01;;;;;;;7.10;5.80;;;;;;;28.27;36.57;102053.44;5044742;27;113978;-71
2021/06/10 08:25:30;;;;;;;9.25;6.10;;;;;;;28.33;36.39;102046.50;5032547;27;124395;-71
2021/06/10 08:27:59;;;;;;;6.78;5.40;;;;;;;28.41;36.11;102043.88;5034985;27;124778;-71
2021/06/10 08:30:28;;;;;;;8.30;5.70;;;;;;;28.49;35.87;102035.75;5049619;27;115314;-71
2021/06/10 08:32:55;;;;;;;9.00;6.47;;;;;;;28.60;35.43;102031.09;5036754;27;114987;-71
2021/06/10 08:35:23;;;;;;;8.20;6.13;;;;;;;28.62;35.16;102029.91;5049086;27;124089;-71
2021/06/10 08:37:50;;;;;;;8.43;5.05;;;;;;;28.67;35.98;102037.59;5036661;27;123899;-71
2021/06/10 08:40:18;;;;;;;8.75;6.20;;;;;;;28.76;35.78;102036.66;5049328;27;114089;-72
2021/06/10 08:42:45;;;;;;;9.13;6.40;;;;;;;28.86;35.84;102036.56;5040530;27;113354;-70
2021/06/10 08:45:16;;;;;;;7.47;5.68;;;;;;;28.91;34.73;102035.06;5050050;27;122822;-69
2021/06/10 08:47:45;;;;;;;6.65;5.47;;;;;;;29.00;34.28;102032.38;5046805;27;123817;-71
2021/06/10 08:50:18;;;;;;;9.32;4.82;;;;;;;29.05;34.65;102038.22;5051774;27;114169;-71
2021/06/10 08:52:45;;;;;;;10.43;6.40;;;;;;;29.11;34.31;102040.28;5047192;27;114402;-73
2021/06/10 08:55:13;;;;;;;9.68;5.80;;;;;;;29.15;34.69;102044.44;5037838;27;124645;-72
2021/06/10 08:57:41;;;;;;;7.25;5.10;;;;;;;29.21;34.50;102046.50;5035806;27;123823;-73
2021/06/10 09:00:27;;;;;;;9.32;5.15;;;;;;;29.26;34.46;102038.69;5037886;27;113018;-74
2021/06/10 09:02:59;;;;;;;12.50;5.25;;;;;;;29.32;34.27;102048.09;5043083;27;113788;-73
2021/06/10 09:05:29;;;;;;;7.47;6.10;;;;;;;29.37;33.81;102051.19;5045888;27;124597;-72
2021/06/10 09:07:58;;;;;;;8.70;4.80;;;;;;;29.37;34.06;102045.75;5052106;27;122725;-72
2021/06/10 09:10:29;;;;;;;7.97;5.40;;;;;;;29.40;34.03;102050.00;5049576;27;114651;-72
2021/06/10 09:13:02;;;;;;;7.93;5.90;;;;;;;29.40;33.91;102041.81;5055303;27;113974;-72
2021/06/10 09:15:32;;;;;;;6.57;5.80;;;;;;;29.42;34.30;102043.38;5049650;27;124021;-73
2021/06/10 09:18:01;;;;;;;7.00;6.07;;;;;;;29.47;34.14;102051.06;5054613;27;124140;-72
2021/06/10 09:20:31;;;;;;;8.27;6.03;;;;;;;29.50;34.29;102045.28;5051813;27;115562;-72
2021/06/10 09:23:20;;;;;;;6.40;5.53;;;;;;;29.57;34.56;102051.78;5028562;27;113888;-74
2021/06/10 09:25:58;;;;;;;8.38;5.35;;;;;;;29.67;34.32;102040.75;5051733;27;122963;-74
2021/06/10 09:28:34;;;;;;;7.70;5.88;;;;;;;29.77;33.71;102043.34;5049898;27;124640;-73
2021/06/10 09:31:02;;;;;;;7.28;5.57;;;;;;;29.88;33.63;102048.50;5052814;27;114116;-73
2021/06/10 09:33:41;;;;;;;6.95;5.60;;;;;;;29.93;33.55;102046.09;5053207;27;112913;-73
2021/06/10 09:36:20;;;;;;;8.85;6.15;;;;;;;29.97;33.94;102047.50;5052731;27;123548;-73
2021/06/10 09:39:13;;;;;;;7.85;6.20;;;;;;;29.98;33.46;102043.72;5052570;27;124522;-73
2021/06/10 09:42:01;;;;;;;9.68;6.68;;;;;;;29.99;33.95;102050.91;5051661;27;113272;-73
2021/06/10 09:44:40;;;;;;;7.07;6.22;;;;;;;30.03;33.46;102046.81;5050907;27;114145;-73
2021/06/10 09:47:07;;;;;;;6.97;5.20;;;;;;;30.06;33.41;102043.75;5049737;27;124940;-73
2021/06/10 09:49:35;;;;;;;7.28;5.72;;;;;;;30.11;33.56;102050.59;5051121;27;124044;-74
2021/06/10 09:52:03;;;;;;;7.13;5.43;;;;;;;30.15;32.85;102039.16;5047041;27;114448;-73
2021/06/10 09:54:58;;;;;;;6.22;4.88;;;;;;;30.18;32.58;102037.97;5050822;27;113792;-73
2021/06/10 09:57:25;;;;;;;7.82;5.90;;;;;;;30.20;32.42;102044.13;5047843;27;123968;-73
2021/06/10 09:59:54;;;;;;;12.90;7.13;;;;;;;30.20;32.60;102031.31;5050089;27;123862;-73
2021/06/10 10:02:24;;;;;;;9.75;7.10;;;;;;;30.23;32.94;102043.75;5050526;27;115037;-73
2021/06/10 10:04:56;;;;;;;6.63;5.53;;;;;;;30.23;33.01;102046.50;5052526;27;114424;-73
2021/06/10 10:07:31;;;;;;;8.27;5.57;;;;;;;30.25;32.78;102055.38;5051549;27;124057;-73
2021/06/10 10:10:00;;;;;;;8.35;5.90;;;;;;;30.31;32.93;102049.25;5049314;27;124428;-73
2021/06/10 10:12:29;;;;;;;8.80;7.60;;;;;;;30.36;33.02;102052.34;5039200;27;115353;-73
2021/06/10 10:14:59;;;;;;;10.43;7.32;;;;;;;30.39;32.39;102057.47;5052860;27;114766;-73
2021/06/10 10:17:27;;;;;;;9.77;7.03;;;;;;;30.40;32.03;102050.13;5046943;27;125020;-73
2021/06/10 10:19:56;;;;;;;7.38;6.65;;;;;;;30.39;32.29;102041.06;5049716;27;123834;-73
2021/06/10 10:22:24;;;;;;;9.20;6.90;;;;;;;30.43;32.86;102036.97;5043844;27;115420;-73
2021/06/10 10:24:55;;;;;;;9.57;7.47;;;;;;;30.51;31.98;102044.31;5043398;27;114706;-74
2021/06/10 10:27:23;;;;;;;9.45;6.57;;;;;;;30.60;32.43;102031.50;5045507;27;124098;-73
2021/06/10 10:29:51;;;;;;;8.90;5.50;;;;;;;30.63;31.97;102025.69;5045209;27;123799;-74
2021/06/10 10:32:27;;;;;;;6.75;5.28;;;;;;;30.65;32.29;102029.09;5061708;27;114197;-77
2021/06/10 10:35:15;;;;;;;6.60;4.63;;;;;;;30.65;32.24;102029.09;5041419;27;114336;-77
2021/06/10 10:37:42;;;;;;;6.65;4.40;;;;;;;30.67;31.57;102027.03;5042808;27;124144;-77
2021/06/10 10:40:20;;;;;;;7.30;4.97;;;;;;;30.66;30.49;102025.31;5041590;27;124372;-77
2021/06/10 10:42:47;;;;;;;5.90;4.00;;;;;;;30.63;30.68;102021.06;5040854;27;114719;-77
2021/06/10 10:45:17;;;;;;;7.55;4.63;;;;;;;30.65;30.87;102023.63;5046704;27;113837;-77
2021/06/10 10:47:58;;;;;;;7.60;4.47;;;;;;;30.67;30.67;102021.56;5042372;27;124112;-77
2021/06/10 10:50:44;;;;;;;5.50;3.90;;;;;;;30.70;31.13;102026.69;5038213;27;124005;-77
2021/06/10 10:53:26;;;;;;;5.50;3.53;;;;;;;30.74;29.62;102021.72;5039746;27;114383;-77
2021/06/10 10:56:07;;;;;;;6.43;4.03;;;;;;;30.78;30.48;102023.94;5041053;27;114900;-77
2021/06/10 10:58:35;;;;;;;6.47;4.47;;;;;;;30.83;31.00;102029.72;5044462;27;122855;-77
2021/06/10 11:01:03;;;;;;;5.25;4.10;;;;;;;30.89;30.25;102019.13;5046298;27;123937;-77
2021/06/10 11:03:37;;;;;;;4.43;3.20;;;;;;;30.91;29.49;102011.63;5041587;27;115453;-77
2021/06/10 11:06:21;;;;;;;6.07;4.10;;;;;;;30.95;29.82;102012.97;5049017;27;96863;-77
2021/06/10 11:09:06;;;;;;;6.25;3.97;;;;;;;31.02;29.89;102019.47;5040267;27;123546;-77
2021/06/10 11:11:48;;;;;;;7.25;4.18;;;;;;;31.02;30.16;102019.47;5042244;27;123768;-76
2021/06/10 11:14:35;;;;;;;4.00;3.40;;;;;;;31.06;30.25;102015.34;5042487;27;114922;-77
2021/06/10 11:17:29;;;;;;;5.57;3.78;;;;;;;31.13;29.98;102010.88;5046129;27;114157;-76
2021/06/10 11:20:08;;;;;;;7.43;3.75;;;;;;;31.18;30.08;102008.47;5037392;27;123968;-77
2021/06/10 11:22:39;;;;;;;6.00;4.70;;;;;;;31.20;29.27;102011.88;5039552;27;123781;-77
2021/06/10 11:25:36;;;;;;;8.27;6.10;;;;;;;31.22;29.40;102015.28;5041597;27;114680;-77